Flight Track Log - Related Links

Times and Time Zones

All times are in EDT time to prevent confusion due to time zone crossing. See the N762NC flight status page for this flight to view local times or setup timezone preferences in your user account.

Time Position Orientation Groundspeed Altitude Reporting Facility
EDT Latitude Longitude Course Direction KTS MPH feet Rate Location/Type
Sun 05:31:36 PM 33.6500 -84.3667 59° Northeast 187 215 2,400  Level Atlanta TRACON
Sun 05:32:36 PM 33.6833 -84.3000 59° Northeast 262 302 4,600 2,500 Climbing Atlanta TRACON
Sun 05:33:36 PM 33.7333 -84.2500 40° Northeast 261 300 7,400 2,200 Climbing Atlanta TRACON
Sun 05:34:36 PM 33.8000 -84.3000 328° Northwest 298 343 9,000 1,429 Climbing Atlanta TRACON
Sun 05:36:45 PM 33.9606 -84.4269 327° Northwest 343 395 11,900 1,587 Climbing Atlanta Center
Sun 05:37:45 PM 34.0439 -84.5000 324° Northwest 367 422 14,000 2,000 Climbing Atlanta Center
Sun 05:38:45 PM 34.1356 -84.5558 333° Northwest 367 422 15,900 1,800 Climbing Atlanta Center
Sun 05:39:45 PM 34.2378 -84.5789 349° North 367 422 17,600 1,500 Climbing Atlanta Center
Sun 05:40:45 PM 34.3419 -84.6150 344° North 380 437 18,900 1,250 Climbing Atlanta Center
Sun 05:41:45 PM 34.4481 -84.6433 348° North 385 443 20,100 1,300 Climbing Atlanta Center
Sun 05:42:45 PM 34.5669 -84.6744 348° North 391 450 21,500 1,200 Climbing Atlanta Center
Sun 05:43:45 PM 34.6775 -84.7006 349° North 403 464 22,500 1,250 Climbing Atlanta Center
Sun 05:44:45 PM 34.7942 -84.7292 349° North 408 470 24,000 1,250 Climbing Atlanta Center
Sun 05:45:45 PM 34.9086 -84.7581 348° North 413 475 25,000 1,100 Climbing Atlanta Center
Sun 05:46:45 PM 35.0256 -84.7794 351° North 418 481 26,200 1,150 Climbing Atlanta Center
Sun 05:47:45 PM 35.1422 -84.8058 350° North 423 487 27,300 850 Climbing Atlanta Center
Sun 05:48:45 PM 35.2589 -84.8375 348° North 428 493 27,900 650 Climbing Atlanta Center
Sun 05:49:45 PM 35.3797 -84.8614 351° North 434 499 28,600 750 Climbing Atlanta Center
Sun 05:50:45 PM 35.4983 -84.8983 346° North 434 499 29,400 900 Climbing Atlanta Center
Sun 05:51:45 PM 35.6192 -84.9328 347° North 434 499 30,400 850 Climbing Atlanta Center
Sun 05:52:45 PM 35.7358 -84.9597 349° North 434 499 31,100 600 Climbing Atlanta Center
Sun 05:53:45 PM 35.8586 -84.9892 349° North 429 494 31,600 600 Climbing Atlanta Center
Sun 05:54:35 PM 35.9506 -85.0306 340° North 450 518 32,200 536 Climbing Indianapolis Center
Sun 05:55:37 PM 36.0586 -85.0767 341° North 447 514 32,600 581 Climbing Indianapolis Center
Sun 05:56:39 PM 36.1978 -85.1389 340° North 442 509 33,400 629 Climbing Indianapolis Center
Sun 05:57:41 PM 36.3117 -85.1917 340° North 437 503 33,900 290 Climbing Indianapolis Center
Sun 05:58:43 PM 36.4297 -85.2244 347° North 438 504 34,000 48 Climbing Indianapolis Center
Sun 05:59:45 PM 36.5511 -85.2442 353° North 438 504 34,000  Level Indianapolis Center
Sun 06:00:47 PM 36.6703 -85.2581 355° North 432 497 34,000  Level Indianapolis Center
Sun 06:01:49 PM 36.7919 -85.2669 357° North 436 502 34,000  Level Indianapolis Center
Sun 06:02:51 PM 36.9353 -85.2906 352° North 434 499 34,000  Level Indianapolis Center
Sun 06:03:53 PM 37.0542 -85.3014 356° North 435 501 34,000  Level Indianapolis Center
Sun 06:04:55 PM 37.1747 -85.3147 355° North 434 499 34,000  Level Indianapolis Center
Sun 06:05:57 PM 37.2897 -85.3717 339° North 441 507 34,000  Level Indianapolis Center
Sun 06:06:59 PM 37.4064 -85.4192 342° North 439 505 34,000  Level Indianapolis Center
Sun 06:08:01 PM 37.5450 -85.4631 346° North 439 505 34,000  Level Indianapolis Center
Sun 06:09:03 PM 37.6667 -85.4836 352° North 446 513 34,000  Level Indianapolis Center
Sun 06:10:05 PM 37.7892 -85.4994 354° North 444 511 34,000  Level Indianapolis Center
Sun 06:11:07 PM 37.9056 -85.5067 357° North 450 518 34,000  Level Indianapolis Center
Sun 06:12:09 PM 38.0258 -85.5419 347° North 444 511 34,000  Level Indianapolis Center
Sun 06:13:13 PM 38.1736 -85.5872 346° North 452 520 34,000  Level Indianapolis Center
Sun 06:14:14 PM 38.2958 -85.5964 357° North 445 512 34,000  Level Indianapolis Center
Sun 06:15:16 PM 38.4214 -85.6011 358° North 448 516 34,000  Level Indianapolis Center
Sun 06:16:18 PM 38.5436 -85.5997 North 443 510 34,000 -242 Level Indianapolis Center
Sun 06:17:20 PM 38.6744 -85.5981 North 447 514 33,500 -629 Descending Indianapolis Center
Sun 06:18:22 PM 38.7997 -85.5856 North 451 519 32,700 -919 Descending Indianapolis Center
Sun 06:19:24 PM 38.9169 -85.5903 358° North 427 491 31,600 -1,403 Descending Indianapolis Center
Sun 06:20:26 PM 39.0547 -85.5989 357° North 418 481 29,800 -1,597 Descending Indianapolis Center
Sun 06:21:28 PM 39.1503 -85.5272 30° Northeast 408 470 28,300 -871 Descending Indianapolis Center
Sun 06:22:30 PM 39.2403 -85.4428 36° Northeast 403 464 28,000 -145 Descending Indianapolis Center
Sun 06:23:32 PM 39.3294 -85.3622 35° Northeast 398 458 28,000  Level Indianapolis Center
Sun 06:24:34 PM 39.4161 -85.2819 36° Northeast 391 450 28,000  Level Indianapolis Center
Sun 06:25:36 PM 39.5311 -85.2489 12° North 384 442 28,000  Level Indianapolis Center
Sun 06:26:38 PM 39.6261 -85.2978 338° Northwest 373 429 28,000  Level Indianapolis Center
Sun 06:27:40 PM 39.7161 -85.3694 329° Northwest 388 447 28,000  Level Indianapolis Center
Sun 06:28:42 PM 39.7639 -85.4928 297° West 393 452 28,000 -194 Level Indianapolis Center
Sun 06:29:44 PM 39.8342 -85.5867 314° West 393 452 27,600 -629 Descending Indianapolis Center
Sun 06:30:46 PM 39.9614 -85.6150 350° North 393 452 26,700 -774 Descending Indianapolis Center
Sun 06:31:48 PM 40.0650 -85.6253 356° North 381 438 26,000 -919 Descending Indianapolis Center
Sun 06:32:50 PM 40.1722 -85.6272 359° North 386 444 24,800 -919 Descending Indianapolis Center
Sun 06:33:52 PM 40.2908 -85.6369 356° North 423 487 24,100 -384 Descending Indianapolis Center
Sun 06:34:55 PM 40.4069 -85.6669 349° North 427 491 24,000 -61 Descending Indianapolis Center
Sun 06:35:30 PM 40.4769 -85.6808 351° North 427 491 24,000 -495 Level Chicago Center
Sun 06:36:32 PM 40.5881 -85.7153 347° North 418 481 23,200 -1,016 Descending Chicago Center
Sun 06:37:34 PM 40.7086 -85.7742 340° North 385 443 21,900 -1,016 Descending Chicago Center
Sun 06:38:36 PM 40.8089 -85.8022 348° North 374 430 21,100 -823 Descending Chicago Center
Sun 06:39:38 PM 40.9086 -85.8306 348° North 368 423 20,200 -532 Descending Chicago Center
Sun 06:40:40 PM 41.0033 -85.8911 334° Northwest 375 432 20,000 -96 Descending Chicago Center
Sun 06:41:43 PM 41.1039 -85.9447 338° Northwest 383 441 20,000  Level Chicago Center
Sun 06:42:45 PM 41.1953 -86.0331 324° Northwest 414 476 20,000  Level Chicago Center
Sun 06:43:47 PM 41.2703 -86.1483 311° West 413 475 20,000 -532 Level Chicago Center
Sun 06:44:49 PM 41.3575 -86.2858 310° West 404 465 18,900 -1,113 Descending Chicago Center
Sun 06:45:51 PM 41.4317 -86.3944 312° West 397 457 17,700 -1,113 Descending Chicago Center
Sun 06:46:53 PM 41.5022 -86.5050 310° West 393 452 16,600 -1,161 Descending Chicago Center
Sun 06:47:55 PM 41.5575 -86.6281 301° West 387 445 15,300 -1,645 Descending Chicago Center
Sun 06:48:57 PM 41.6275 -86.7406 310° West 370 426 13,200 -1,548 Descending Chicago Center
Sun 06:49:59 PM 41.7228 -86.7744 345° North 359 413 12,100 -532 Descending Chicago Center
Sun 06:51:01 PM 41.8150 -86.8089 344° North 350 403 12,100  Level Chicago Center
Sun 06:52:03 PM 41.9242 -86.8669 338° Northwest 354 407 12,100 -387 Level Chicago Center
Sun 06:53:05 PM 41.9864 -86.9547 314° West 363 418 11,300 -871 Descending Chicago Center
Sun 06:54:07 PM 41.9772 -87.0736 264° West 327 376 10,300 -960 Descending Chicago Center
Sun 06:55:10 PM 41.9858 -87.1767 276° West 284 327 9,300 -960 Descending Chicago Center
Sun 06:56:12 PM 41.9822 -87.2700 267° West 255 293 8,300 -871 Descending Chicago Center
Sun 06:57:14 PM 41.9844 -87.3714 272° West 229 264 7,500 -629 Descending Chicago Center
Sun 06:58:16 PM 41.9828 -87.4403 268° West 185 213 7,000 -726 Descending Chicago Center
Sun 06:59:18 PM 41.9819 -87.5081 269° West 181 208 6,000 -919 Descending Chicago Center
Sun 07:00:20 PM 41.9833 -87.5714 272° West 173 199 5,100 -871 Descending Chicago Center
Sun 07:01:22 PM 41.9833 -87.6369 270° West 173 199 4,200 -968 Descending Chicago Center
Sun 07:02:24 PM 41.9839 -87.7161 271° West 177 204 3,100 -968 Descending Chicago Center
Sun 07:03:26 PM 41.9836 -87.7794 270° West 175 201 2,200 -871 Descending Chicago Center
Sun 07:04:28 PM 41.9833 -87.8333 270° West 143 165 1,300 -871 Descending Chicago TRACON
Sun 07:07:00 PM 41.9667 -87.9000 270° West  Level FlightAware Approximate

Login

Don't have an account? Register now (free) for customized features, flight alerts, and more!